METAR Data
IDs: Format: Raw Decoded Include TAF

Data at: 1349 UTC 26 Feb 2021

METAR for:K7BM (Bald Mountain, CO, US)
Text:K7BM 261335Z AUTO 28017G27KT 260V340 10SM CLR M07/M16 A2977 RMK AO2
Temperature: -7.0°C ( 19°F)
Dewpoint:-16.0°C ( 3°F) [RH = 49%]
Pressure (altimeter):29.77 inches Hg (1008.2 mb)
Winds:from the W (280 degrees) at 20 MPH (17 knots; 8.7 m/s) gusting to 31 MPH (27 knots; 13.9 m/s)
Visibility:10 or more sm (16+ km)
Ceiling:at least 12,000 feet AGL
Clouds:sky clear below 12,000 feet AGL
QC Flag:automated observation with no human augmentation